sensor_id;sensor_type;location;lat;lon;timestamp;P1;durP1;ratioP1;P2;durP2;ratioP2
33403;SDS011;19751;40.274;18.268;2023-04-28T00:00:26;4.13;;;2.05;;
33403;SDS011;19751;40.274;18.268;2023-04-28T00:02:51;4.00;;;2.10;;
33403;SDS011;19751;40.274;18.268;2023-04-28T00:05:17;2.42;;;1.92;;
33403;SDS011;19751;40.274;18.268;2023-04-28T00:07:44;3.97;;;2.33;;
33403;SDS011;19751;40.274;18.268;2023-04-28T00:10:09;6.47;;;2.85;;
33403;SDS011;19751;40.274;18.268;2023-04-28T00:12:35;8.15;;;2.88;;
33403;SDS011;19751;40.274;18.268;2023-04-28T00:15:01;6.57;;;2.25;;
33403;SDS011;19751;40.274;18.268;2023-04-28T00:17:27;5.72;;;2.80;;
33403;SDS011;19751;40.274;18.268;2023-04-28T00:19:53;4.75;;;2.22;;
33403;SDS011;19751;40.274;18.268;2023-04-28T00:22:18;2.53;;;1.73;;
33403;SDS011;19751;40.274;18.268;2023-04-28T00:24:44;7.60;;;2.53;;
33403;SDS011;19751;40.274;18.268;2023-04-28T00:27:09;5.63;;;2.25;;
33403;SDS011;19751;40.274;18.268;2023-04-28T00:29:35;4.90;;;2.03;;
33403;SDS011;19751;40.274;18.268;2023-04-28T00:32:03;5.55;;;2.10;;
33403;SDS011;19751;40.274;18.268;2023-04-28T00:34:31;8.88;;;2.55;;
33403;SDS011;19751;40.274;18.268;2023-04-28T00:36:57;6.85;;;2.50;;
33403;SDS011;19751;40.274;18.268;2023-04-28T00:39:23;4.25;;;2.33;;
33403;SDS011;19751;40.274;18.268;2023-04-28T00:41:50;4.50;;;2.05;;
33403;SDS011;19751;40.274;18.268;2023-04-28T00:44:16;5.47;;;1.80;;
33403;SDS011;19751;40.274;18.268;2023-04-28T00:46:42;3.05;;;1.90;;
33403;SDS011;19751;40.274;18.268;2023-04-28T00:49:07;3.05;;;2.13;;
33403;SDS011;19751;40.274;18.268;2023-04-28T00:51:34;5.68;;;2.10;;
33403;SDS011;19751;40.274;18.268;2023-04-28T00:53:59;6.63;;;2.85;;
33403;SDS011;19751;40.274;18.268;2023-04-28T00:56:25;4.20;;;2.38;;
33403;SDS011;19751;40.274;18.268;2023-04-28T00:58:55;3.53;;;2.20;;
33403;SDS011;19751;40.274;18.268;2023-04-28T01:01:21;5.38;;;2.60;;
33403;SDS011;19751;40.274;18.268;2023-04-28T01:03:47;6.45;;;2.75;;
33403;SDS011;19751;40.274;18.268;2023-04-28T01:06:13;4.07;;;2.65;;
33403;SDS011;19751;40.274;18.268;2023-04-28T01:08:39;3.95;;;2.47;;
33403;SDS011;19751;40.274;18.268;2023-04-28T01:11:06;4.68;;;2.40;;
33403;SDS011;19751;40.274;18.268;2023-04-28T01:13:34;4.47;;;1.95;;
33403;SDS011;19751;40.274;18.268;2023-04-28T01:16:00;3.00;;;1.90;;
33403;SDS011;19751;40.274;18.268;2023-04-28T01:18:25;5.30;;;2.00;;
33403;SDS011;19751;40.274;18.268;2023-04-28T01:20:51;3.78;;;1.83;;
33403;SDS011;19751;40.274;18.268;2023-04-28T01:23:17;2.60;;;1.23;;
33403;SDS011;19751;40.274;18.268;2023-04-28T01:25:42;2.80;;;1.80;;
33403;SDS011;19751;40.274;18.268;2023-04-28T01:28:08;3.83;;;1.83;;
33403;SDS011;19751;40.274;18.268;2023-04-28T01:30:35;2.38;;;1.48;;
33403;SDS011;19751;40.274;18.268;2023-04-28T01:33:01;2.75;;;1.52;;
33403;SDS011;19751;40.274;18.268;2023-04-28T01:35:27;2.83;;;1.70;;
33403;SDS011;19751;40.274;18.268;2023-04-28T01:37:52;5.07;;;2.30;;
33403;SDS011;19751;40.274;18.268;2023-04-28T01:40:18;2.53;;;1.35;;
33403;SDS011;19751;40.274;18.268;2023-04-28T01:42:43;3.33;;;1.67;;
33403;SDS011;19751;40.274;18.268;2023-04-28T01:45:09;2.83;;;1.50;;
33403;SDS011;19751;40.274;18.268;2023-04-28T01:47:35;3.15;;;1.30;;
33403;SDS011;19751;40.274;18.268;2023-04-28T01:50:00;4.03;;;2.03;;
33403;SDS011;19751;40.274;18.268;2023-04-28T01:52:26;6.47;;;1.60;;
33403;SDS011;19751;40.274;18.268;2023-04-28T01:54:52;4.43;;;2.17;;
33403;SDS011;19751;40.274;18.268;2023-04-28T01:57:18;4.03;;;2.40;;
33403;SDS011;19751;40.274;18.268;2023-04-28T01:59:43;3.78;;;2.58;;
33403;SDS011;19751;40.274;18.268;2023-04-28T02:02:09;6.05;;;2.75;;
33403;SDS011;19751;40.274;18.268;2023-04-28T02:04:36;7.85;;;3.03;;
33403;SDS011;19751;40.274;18.268;2023-04-28T02:07:02;5.50;;;2.50;;
33403;SDS011;19751;40.274;18.268;2023-04-28T02:09:28;6.45;;;2.05;;
33403;SDS011;19751;40.274;18.268;2023-04-28T02:11:53;4.38;;;2.30;;
33403;SDS011;19751;40.274;18.268;2023-04-28T02:14:19;6.53;;;3.30;;
33403;SDS011;19751;40.274;18.268;2023-04-28T02:16:44;12.25;;;4.30;;
33403;SDS011;19751;40.274;18.268;2023-04-28T02:19:10;7.30;;;3.75;;
33403;SDS011;19751;40.274;18.268;2023-04-28T02:21:35;4.82;;;3.00;;
33403;SDS011;19751;40.274;18.268;2023-04-28T02:24:01;8.75;;;3.35;;
33403;SDS011;19751;40.274;18.268;2023-04-28T02:26:27;8.25;;;2.95;;
33403;SDS011;19751;40.274;18.268;2023-04-28T02:28:52;5.50;;;2.33;;
33403;SDS011;19751;40.274;18.268;2023-04-28T02:31:18;4.57;;;2.72;;
33403;SDS011;19751;40.274;18.268;2023-04-28T02:33:43;8.00;;;2.33;;
33403;SDS011;19751;40.274;18.268;2023-04-28T02:36:08;6.25;;;3.53;;
33403;SDS011;19751;40.274;18.268;2023-04-28T02:38:35;6.85;;;2.80;;
33403;SDS011;19751;40.274;18.268;2023-04-28T02:41:01;7.65;;;3.03;;
33403;SDS011;19751;40.274;18.268;2023-04-28T02:43:29;8.05;;;2.85;;
33403;SDS011;19751;40.274;18.268;2023-04-28T02:45:57;6.10;;;2.83;;
33403;SDS011;19751;40.274;18.268;2023-04-28T02:48:24;3.70;;;2.65;;
33403;SDS011;19751;40.274;18.268;2023-04-28T02:50:50;2.97;;;2.10;;
33403;SDS011;19751;40.274;18.268;2023-04-28T02:53:17;3.05;;;2.17;;
33403;SDS011;19751;40.274;18.268;2023-04-28T02:55:43;4.93;;;2.00;;
33403;SDS011;19751;40.274;18.268;2023-04-28T02:58:09;5.50;;;2.10;;
33403;SDS011;19751;40.274;18.268;2023-04-28T03:00:34;4.72;;;1.92;;
33403;SDS011;19751;40.274;18.268;2023-04-28T03:03:00;2.63;;;1.48;;
33403;SDS011;19751;40.274;18.268;2023-04-28T03:05:26;5.15;;;1.92;;
33403;SDS011;19751;40.274;18.268;2023-04-28T03:07:51;3.85;;;1.90;;
33403;SDS011;19751;40.274;18.268;2023-04-28T03:10:17;3.88;;;2.22;;
33403;SDS011;19751;40.274;18.268;2023-04-28T03:12:42;4.28;;;1.70;;
33403;SDS011;19751;40.274;18.268;2023-04-28T03:15:08;2.75;;;1.73;;
33403;SDS011;19751;40.274;18.268;2023-04-28T03:17:34;2.65;;;1.63;;
33403;SDS011;19751;40.274;18.268;2023-04-28T03:20:05;2.60;;;1.88;;
33403;SDS011;19751;40.274;18.268;2023-04-28T03:22:32;3.28;;;1.77;;
33403;SDS011;19751;40.274;18.268;2023-04-28T03:24:58;2.80;;;1.67;;
33403;SDS011;19751;40.274;18.268;2023-04-28T03:27:24;4.60;;;2.05;;
33403;SDS011;19751;40.274;18.268;2023-04-28T03:29:50;7.00;;;2.35;;
33403;SDS011;19751;40.274;18.268;2023-04-28T03:32:15;4.78;;;2.17;;
33403;SDS011;19751;40.274;18.268;2023-04-28T03:34:41;4.22;;;2.92;;
33403;SDS011;19751;40.274;18.268;2023-04-28T03:37:06;3.10;;;2.50;;
33403;SDS011;19751;40.274;18.268;2023-04-28T03:39:32;2.33;;;1.90;;
33403;SDS011;19751;40.274;18.268;2023-04-28T03:41:57;2.70;;;2.45;;
33403;SDS011;19751;40.274;18.268;2023-04-28T03:44:23;5.95;;;2.65;;
33403;SDS011;19751;40.274;18.268;2023-04-28T03:46:48;9.50;;;3.60;;
33403;SDS011;19751;40.274;18.268;2023-04-28T03:49:14;6.25;;;3.78;;
33403;SDS011;19751;40.274;18.268;2023-04-28T03:51:40;7.75;;;2.67;;
33403;SDS011;19751;40.274;18.268;2023-04-28T03:54:06;6.78;;;2.40;;
33403;SDS011;19751;40.274;18.268;2023-04-28T03:56:32;4.45;;;2.03;;
33403;SDS011;19751;40.274;18.268;2023-04-28T03:58:58;4.93;;;1.52;;
33403;SDS011;19751;40.274;18.268;2023-04-28T04:01:23;3.65;;;2.17;;
33403;SDS011;19751;40.274;18.268;2023-04-28T04:03:49;5.00;;;1.77;;
33403;SDS011;19751;40.274;18.268;2023-04-28T04:06:15;6.35;;;1.70;;
33403;SDS011;19751;40.274;18.268;2023-04-28T04:08:41;3.72;;;1.70;;
33403;SDS011;19751;40.274;18.268;2023-04-28T04:11:06;5.57;;;2.88;;
33403;SDS011;19751;40.274;18.268;2023-04-28T04:13:32;2.95;;;2.30;;
33403;SDS011;19751;40.274;18.268;2023-04-28T04:15:57;4.80;;;1.73;;
33403;SDS011;19751;40.274;18.268;2023-04-28T04:18:23;5.07;;;1.92;;
33403;SDS011;19751;40.274;18.268;2023-04-28T04:20:48;2.83;;;1.88;;
33403;SDS011;19751;40.274;18.268;2023-04-28T04:23:14;2.25;;;1.83;;
33403;SDS011;19751;40.274;18.268;2023-04-28T04:25:40;4.15;;;2.78;;
33403;SDS011;19751;40.274;18.268;2023-04-28T04:28:06;4.20;;;2.35;;
33403;SDS011;19751;40.274;18.268;2023-04-28T04:30:32;3.47;;;1.83;;
33403;SDS011;19751;40.274;18.268;2023-04-28T04:32:57;3.92;;;2.42;;
33403;SDS011;19751;40.274;18.268;2023-04-28T04:35:23;5.18;;;2.08;;
33403;SDS011;19751;40.274;18.268;2023-04-28T04:37:48;4.57;;;2.58;;
33403;SDS011;19751;40.274;18.268;2023-04-28T04:40:15;4.03;;;2.38;;
33403;SDS011;19751;40.274;18.268;2023-04-28T04:42:40;2.45;;;1.67;;
33403;SDS011;19751;40.274;18.268;2023-04-28T04:45:06;3.70;;;1.90;;
33403;SDS011;19751;40.274;18.268;2023-04-28T04:47:32;4.70;;;1.92;;
33403;SDS011;19751;40.274;18.268;2023-04-28T04:49:57;2.47;;;1.67;;
33403;SDS011;19751;40.274;18.268;2023-04-28T04:52:23;2.92;;;2.10;;
33403;SDS011;19751;40.274;18.268;2023-04-28T04:54:49;8.73;;;3.00;;
33403;SDS011;19751;40.274;18.268;2023-04-28T04:57:14;7.53;;;3.40;;
33403;SDS011;19751;40.274;18.268;2023-04-28T04:59:40;7.85;;;2.78;;
33403;SDS011;19751;40.274;18.268;2023-04-28T05:02:06;4.03;;;2.17;;
33403;SDS011;19751;40.274;18.268;2023-04-28T05:04:31;7.60;;;2.63;;
33403;SDS011;19751;40.274;18.268;2023-04-28T05:06:57;2.85;;;1.85;;
33403;SDS011;19751;40.274;18.268;2023-04-28T05:09:22;4.85;;;2.05;;
33403;SDS011;19751;40.274;18.268;2023-04-28T05:11:48;8.82;;;2.00;;
33403;SDS011;19751;40.274;18.268;2023-04-28T05:14:13;4.00;;;2.20;;
33403;SDS011;19751;40.274;18.268;2023-04-28T05:16:39;4.78;;;2.75;;
33403;SDS011;19751;40.274;18.268;2023-04-28T05:19:05;8.95;;;5.55;;
33403;SDS011;19751;40.274;18.268;2023-04-28T05:21:31;15.82;;;7.60;;
33403;SDS011;19751;40.274;18.268;2023-04-28T05:23:56;18.67;;;9.80;;
33403;SDS011;19751;40.274;18.268;2023-04-28T05:26:22;15.02;;;8.93;;
33403;SDS011;19751;40.274;18.268;2023-04-28T05:28:48;13.88;;;7.32;;
33403;SDS011;19751;40.274;18.268;2023-04-28T05:31:13;11.15;;;4.32;;
33403;SDS011;19751;40.274;18.268;2023-04-28T05:33:39;7.10;;;3.80;;
33403;SDS011;19751;40.274;18.268;2023-04-28T05:36:05;7.43;;;3.47;;
33403;SDS011;19751;40.274;18.268;2023-04-28T05:38:31;4.85;;;1.80;;
33403;SDS011;19751;40.274;18.268;2023-04-28T05:40:57;8.45;;;4.07;;
33403;SDS011;19751;40.274;18.268;2023-04-28T05:43:23;10.40;;;2.28;;
33403;SDS011;19751;40.274;18.268;2023-04-28T05:45:48;3.00;;;1.88;;
33403;SDS011;19751;40.274;18.268;2023-04-28T05:48:14;7.32;;;2.92;;
33403;SDS011;19751;40.274;18.268;2023-04-28T05:50:40;7.85;;;3.08;;
33403;SDS011;19751;40.274;18.268;2023-04-28T05:53:05;4.53;;;1.83;;
33403;SDS011;19751;40.274;18.268;2023-04-28T05:55:32;12.38;;;2.60;;
33403;SDS011;19751;40.274;18.268;2023-04-28T05:57:58;8.60;;;2.70;;
33403;SDS011;19751;40.274;18.268;2023-04-28T06:00:24;10.50;;;2.42;;
33403;SDS011;19751;40.274;18.268;2023-04-28T06:02:50;14.60;;;3.20;;
33403;SDS011;19751;40.274;18.268;2023-04-28T06:05:15;8.27;;;2.72;;
33403;SDS011;19751;40.274;18.268;2023-04-28T06:07:41;5.30;;;2.50;;
33403;SDS011;19751;40.274;18.268;2023-04-28T06:10:07;10.07;;;2.92;;
33403;SDS011;19751;40.274;18.268;2023-04-28T06:12:33;6.78;;;3.13;;
33403;SDS011;19751;40.274;18.268;2023-04-28T06:14:58;5.97;;;2.10;;
33403;SDS011;19751;40.274;18.268;2023-04-28T06:17:24;6.78;;;2.50;;
33403;SDS011;19751;40.274;18.268;2023-04-28T06:19:49;9.77;;;2.70;;
33403;SDS011;19751;40.274;18.268;2023-04-28T06:22:18;5.57;;;1.80;;
33403;SDS011;19751;40.274;18.268;2023-04-28T06:24:43;7.43;;;1.95;;
33403;SDS011;19751;40.274;18.268;2023-04-28T06:27:09;4.85;;;1.90;;
33403;SDS011;19751;40.274;18.268;2023-04-28T06:29:35;3.92;;;1.90;;
33403;SDS011;19751;40.274;18.268;2023-04-28T06:32:00;4.47;;;1.95;;
33403;SDS011;19751;40.274;18.268;2023-04-28T06:34:25;7.45;;;1.88;;
33403;SDS011;19751;40.274;18.268;2023-04-28T06:36:55;4.25;;;1.88;;
33403;SDS011;19751;40.274;18.268;2023-04-28T06:39:22;4.03;;;1.90;;
33403;SDS011;19751;40.274;18.268;2023-04-28T06:41:48;3.42;;;1.63;;
33403;SDS011;19751;40.274;18.268;2023-04-28T06:44:13;7.80;;;2.03;;
33403;SDS011;19751;40.274;18.268;2023-04-28T06:46:39;4.60;;;1.75;;
33403;SDS011;19751;40.274;18.268;2023-04-28T06:49:04;5.15;;;1.83;;
33403;SDS011;19751;40.274;18.268;2023-04-28T06:51:30;5.28;;;1.90;;
33403;SDS011;19751;40.274;18.268;2023-04-28T06:53:59;3.03;;;1.48;;
33403;SDS011;19751;40.274;18.268;2023-04-28T06:56:24;2.60;;;1.30;;
33403;SDS011;19751;40.274;18.268;2023-04-28T06:58:50;5.10;;;1.67;;
33403;SDS011;19751;40.274;18.268;2023-04-28T07:01:16;4.78;;;1.90;;
33403;SDS011;19751;40.274;18.268;2023-04-28T07:03:42;4.47;;;1.70;;
33403;SDS011;19751;40.274;18.268;2023-04-28T07:06:08;2.75;;;1.30;;
33403;SDS011;19751;40.274;18.268;2023-04-28T07:08:33;5.43;;;1.75;;
33403;SDS011;19751;40.274;18.268;2023-04-28T07:11:00;5.35;;;1.45;;
33403;SDS011;19751;40.274;18.268;2023-04-28T07:13:29;6.47;;;1.50;;
33403;SDS011;19751;40.274;18.268;2023-04-28T07:15:55;2.47;;;1.33;;
33403;SDS011;19751;40.274;18.268;2023-04-28T07:18:20;3.08;;;1.67;;
33403;SDS011;19751;40.274;18.268;2023-04-28T07:20:46;3.22;;;1.63;;
33403;SDS011;19751;40.274;18.268;2023-04-28T07:23:12;6.22;;;2.58;;
33403;SDS011;19751;40.274;18.268;2023-04-28T07:25:38;3.22;;;1.35;;
33403;SDS011;19751;40.274;18.268;2023-04-28T07:28:07;6.10;;;1.70;;
33403;SDS011;19751;40.274;18.268;2023-04-28T07:30:34;8.80;;;1.85;;
33403;SDS011;19751;40.274;18.268;2023-04-28T07:33:00;2.63;;;1.08;;
33403;SDS011;19751;40.274;18.268;2023-04-28T07:35:26;1.38;;;1.17;;
33403;SDS011;19751;40.274;18.268;2023-04-28T07:37:53;4.15;;;1.42;;
33403;SDS011;19751;40.274;18.268;2023-04-28T07:40:19;4.45;;;1.50;;
33403;SDS011;19751;40.274;18.268;2023-04-28T07:42:45;2.55;;;1.40;;
33403;SDS011;19751;40.274;18.268;2023-04-28T07:45:11;4.25;;;2.15;;
33403;SDS011;19751;40.274;18.268;2023-04-28T07:47:37;4.32;;;1.30;;
33403;SDS011;19751;40.274;18.268;2023-04-28T07:50:03;3.17;;;1.67;;
33403;SDS011;19751;40.274;18.268;2023-04-28T07:52:30;2.95;;;1.58;;
33403;SDS011;19751;40.274;18.268;2023-04-28T07:54:57;3.97;;;2.72;;
33403;SDS011;19751;40.274;18.268;2023-04-28T07:57:23;2.17;;;1.23;;
33403;SDS011;19751;40.274;18.268;2023-04-28T07:59:48;2.80;;;1.27;;
33403;SDS011;19751;40.274;18.268;2023-04-28T08:02:14;3.97;;;1.90;;
33403;SDS011;19751;40.274;18.268;2023-04-28T08:04:40;3.13;;;1.45;;
33403;SDS011;19751;40.274;18.268;2023-04-28T08:07:05;2.42;;;1.35;;
33403;SDS011;19751;40.274;18.268;2023-04-28T08:09:32;2.03;;;1.50;;
33403;SDS011;19751;40.274;18.268;2023-04-28T08:11:59;6.90;;;1.70;;
33403;SDS011;19751;40.274;18.268;2023-04-28T08:14:25;2.70;;;1.48;;
33403;SDS011;19751;40.274;18.268;2023-04-28T08:16:51;4.20;;;1.80;;
33403;SDS011;19751;40.274;18.268;2023-04-28T08:19:17;4.35;;;1.55;;
33403;SDS011;19751;40.274;18.268;2023-04-28T08:21:43;2.10;;;1.40;;
33403;SDS011;19751;40.274;18.268;2023-04-28T08:24:08;5.88;;;1.30;;
33403;SDS011;19751;40.274;18.268;2023-04-28T08:26:35;3.72;;;1.70;;
33403;SDS011;19751;40.274;18.268;2023-04-28T08:29:01;2.45;;;1.50;;
33403;SDS011;19751;40.274;18.268;2023-04-28T08:31:27;3.17;;;1.10;;
33403;SDS011;19751;40.274;18.268;2023-04-28T08:33:52;3.88;;;1.20;;
33403;SDS011;19751;40.274;18.268;2023-04-28T08:36:18;3.85;;;1.23;;
33403;SDS011;19751;40.274;18.268;2023-04-28T08:38:43;1.58;;;1.05;;
33403;SDS011;19751;40.274;18.268;2023-04-28T08:41:11;2.92;;;1.23;;
33403;SDS011;19751;40.274;18.268;2023-04-28T08:43:38;2.42;;;1.42;;
33403;SDS011;19751;40.274;18.268;2023-04-28T08:46:06;2.45;;;1.25;;
33403;SDS011;19751;40.274;18.268;2023-04-28T08:48:40;2.83;;;1.20;;
33403;SDS011;19751;40.274;18.268;2023-04-28T08:51:09;3.35;;;1.23;;
33403;SDS011;19751;40.274;18.268;2023-04-28T08:53:40;3.47;;;1.02;;
33403;SDS011;19751;40.274;18.268;2023-04-28T08:56:09;3.20;;;1.20;;
33403;SDS011;19751;40.274;18.268;2023-04-28T08:58:39;3.72;;;1.25;;
33403;SDS011;19751;40.274;18.268;2023-04-28T09:01:04;3.00;;;1.40;;
33403;SDS011;19751;40.274;18.268;2023-04-28T09:03:33;2.70;;;1.50;;
33403;SDS011;19751;40.274;18.268;2023-04-28T09:05:59;5.55;;;1.10;;
33403;SDS011;19751;40.274;18.268;2023-04-28T09:08:26;2.83;;;1.40;;
33403;SDS011;19751;40.274;18.268;2023-04-28T09:11:04;5.03;;;1.48;;
33403;SDS011;19751;40.274;18.268;2023-04-28T09:13:34;4.15;;;1.77;;
33403;SDS011;19751;40.274;18.268;2023-04-28T09:16:00;1.73;;;1.38;;
33403;SDS011;19751;40.274;18.268;2023-04-28T09:18:27;3.28;;;1.80;;
33403;SDS011;19751;40.274;18.268;2023-04-28T09:21:01;4.13;;;1.45;;
33403;SDS011;19751;40.274;18.268;2023-04-28T09:23:28;3.20;;;1.55;;
33403;SDS011;19751;40.274;18.268;2023-04-28T09:26:03;5.13;;;1.52;;
33403;SDS011;19751;40.274;18.268;2023-04-28T09:28:31;6.22;;;1.83;;
33403;SDS011;19751;40.274;18.268;2023-04-28T09:30:58;4.68;;;1.70;;
33403;SDS011;19751;40.274;18.268;2023-04-28T09:33:24;6.35;;;1.98;;
33403;SDS011;19751;40.274;18.268;2023-04-28T09:35:49;2.80;;;1.42;;
33403;SDS011;19751;40.274;18.268;2023-04-28T09:38:15;2.85;;;1.40;;
33403;SDS011;19751;40.274;18.268;2023-04-28T09:45:55;4.22;;;1.33;;
33403;SDS011;19751;40.274;18.268;2023-04-28T09:48:26;3.40;;;1.48;;
33403;SDS011;19751;40.274;18.268;2023-04-28T09:50:55;7.85;;;2.50;;
33403;SDS011;19751;40.274;18.268;2023-04-28T09:53:23;4.70;;;1.65;;
33403;SDS011;19751;40.274;18.268;2023-04-28T09:55:51;4.50;;;1.80;;
33403;SDS011;19751;40.274;18.268;2023-04-28T09:58:21;4.57;;;1.63;;
33403;SDS011;19751;40.274;18.268;2023-04-28T10:00:54;3.13;;;2.60;;
33403;SDS011;19751;40.274;18.268;2023-04-28T10:05:48;4.78;;;2.15;;
33403;SDS011;19751;40.274;18.268;2023-04-28T10:08:15;4.05;;;1.92;;
33403;SDS011;19751;40.274;18.268;2023-04-28T10:10:42;8.43;;;2.35;;
33403;SDS011;19751;40.274;18.268;2023-04-28T10:13:08;7.07;;;1.67;;
33403;SDS011;19751;40.274;18.268;2023-04-28T10:15:34;2.50;;;1.48;;
33403;SDS011;19751;40.274;18.268;2023-04-28T10:18:01;4.13;;;1.45;;
33403;SDS011;19751;40.274;18.268;2023-04-28T10:20:28;1.95;;;1.00;;
33403;SDS011;19751;40.274;18.268;2023-04-28T10:23:00;3.30;;;1.80;;
33403;SDS011;19751;40.274;18.268;2023-04-28T10:25:53;5.68;;;1.48;;
33403;SDS011;19751;40.274;18.268;2023-04-28T10:28:22;2.53;;;1.42;;
33403;SDS011;19751;40.274;18.268;2023-04-28T10:33:38;2.92;;;1.60;;
33403;SDS011;19751;40.274;18.268;2023-04-28T10:36:05;3.08;;;1.30;;
33403;SDS011;19751;40.274;18.268;2023-04-28T10:38:32;3.55;;;1.10;;
33403;SDS011;19751;40.274;18.268;2023-04-28T10:40:58;8.13;;;1.45;;
33403;SDS011;19751;40.274;18.268;2023-04-28T10:54:09;3.90;;;1.70;;
33403;SDS011;19751;40.274;18.268;2023-04-28T10:56:25;3.08;;;1.60;;
33403;SDS011;19751;40.274;18.268;2023-04-28T11:01:23;8.35;;;1.45;;
33403;SDS011;19751;40.274;18.268;2023-04-28T11:03:50;4.78;;;1.50;;
33403;SDS011;19751;40.274;18.268;2023-04-28T11:06:38;3.42;;;1.25;;
33403;SDS011;19751;40.274;18.268;2023-04-28T11:21:58;2.13;;;1.25;;
33403;SDS011;19751;40.274;18.268;2023-04-28T11:24:26;3.30;;;1.92;;
33403;SDS011;19751;40.274;18.268;2023-04-28T11:26:58;4.10;;;1.63;;
33403;SDS011;19751;40.274;18.268;2023-04-28T11:29:34;5.40;;;2.58;;
33403;SDS011;19751;40.274;18.268;2023-04-28T11:32:03;3.63;;;1.38;;
33403;SDS011;19751;40.274;18.268;2023-04-28T11:34:30;2.85;;;1.00;;
33403;SDS011;19751;40.274;18.268;2023-04-28T11:36:56;2.08;;;1.30;;
33403;SDS011;19751;40.274;18.268;2023-04-28T11:39:26;2.58;;;1.30;;
33403;SDS011;19751;40.274;18.268;2023-04-28T11:41:53;4.93;;;1.35;;
33403;SDS011;19751;40.274;18.268;2023-04-28T11:44:22;2.15;;;1.38;;
33403;SDS011;19751;40.274;18.268;2023-04-28T11:46:55;4.43;;;1.63;;
33403;SDS011;19751;40.274;18.268;2023-04-28T11:49:28;1.60;;;1.27;;
33403;SDS011;19751;40.274;18.268;2023-04-28T11:52:03;2.83;;;1.65;;
33403;SDS011;19751;40.274;18.268;2023-04-28T11:54:30;1.60;;;1.02;;
33403;SDS011;19751;40.274;18.268;2023-04-28T11:56:56;3.78;;;1.40;;
33403;SDS011;19751;40.274;18.268;2023-04-28T11:59:23;2.20;;;1.15;;
33403;SDS011;19751;40.274;18.268;2023-04-28T12:01:49;2.78;;;1.70;;
33403;SDS011;19751;40.274;18.268;2023-04-28T12:04:26;7.20;;;3.17;;
33403;SDS011;19751;40.274;18.268;2023-04-28T12:07:25;3.85;;;1.85;;
33403;SDS011;19751;40.274;18.268;2023-04-28T12:09:44;5.60;;;2.53;;
33403;SDS011;19751;40.274;18.268;2023-04-28T12:12:15;4.95;;;2.50;;
33403;SDS011;19751;40.274;18.268;2023-04-28T12:14:54;3.03;;;1.63;;
33403;SDS011;19751;40.274;18.268;2023-04-28T12:17:31;3.47;;;1.58;;
33403;SDS011;19751;40.274;18.268;2023-04-28T12:20:06;3.90;;;1.20;;
33403;SDS011;19751;40.274;18.268;2023-04-28T12:22:54;5.32;;;1.30;;
33403;SDS011;19751;40.274;18.268;2023-04-28T12:25:19;1.77;;;1.10;;
33403;SDS011;19751;40.274;18.268;2023-04-28T12:27:57;2.90;;;0.90;;
33403;SDS011;19751;40.274;18.268;2023-04-28T12:30:26;4.05;;;1.10;;
33403;SDS011;19751;40.274;18.268;2023-04-28T12:32:52;2.20;;;1.08;;
33403;SDS011;19751;40.274;18.268;2023-04-28T12:35:26;3.03;;;0.95;;
33403;SDS011;19751;40.274;18.268;2023-04-28T12:37:53;1.88;;;1.02;;
33403;SDS011;19751;40.274;18.268;2023-04-28T12:40:20;2.40;;;0.82;;
33403;SDS011;19751;40.274;18.268;2023-04-28T12:42:45;1.80;;;0.93;;
33403;SDS011;19751;40.274;18.268;2023-04-28T12:45:11;0.88;;;0.82;;
33403;SDS011;19751;40.274;18.268;2023-04-28T12:47:37;1.88;;;1.15;;
33403;SDS011;19751;40.274;18.268;2023-04-28T12:50:04;1.77;;;0.70;;
33403;SDS011;19751;40.274;18.268;2023-04-28T12:52:30;1.67;;;0.75;;
33403;SDS011;19751;40.274;18.268;2023-04-28T12:54:58;2.67;;;0.80;;
33403;SDS011;19751;40.274;18.268;2023-04-28T12:57:23;1.08;;;0.82;;
33403;SDS011;19751;40.274;18.268;2023-04-28T12:59:50;1.67;;;0.90;;
33403;SDS011;19751;40.274;18.268;2023-04-28T13:02:16;2.40;;;0.98;;
33403;SDS011;19751;40.274;18.268;2023-04-28T13:04:42;1.75;;;0.63;;
33403;SDS011;19751;40.274;18.268;2023-04-28T13:07:10;0.57;;;0.50;;
33403;SDS011;19751;40.274;18.268;2023-04-28T13:09:36;1.02;;;0.82;;
33403;SDS011;19751;40.274;18.268;2023-04-28T13:12:01;2.35;;;0.95;;
33403;SDS011;19751;40.274;18.268;2023-04-28T13:14:28;1.30;;;0.60;;
33403;SDS011;19751;40.274;18.268;2023-04-28T13:16:55;2.00;;;1.08;;
33403;SDS011;19751;40.274;18.268;2023-04-28T13:19:21;1.13;;;0.85;;
33403;SDS011;19751;40.274;18.268;2023-04-28T13:21:47;2.88;;;0.90;;
33403;SDS011;19751;40.274;18.268;2023-04-28T13:24:13;3.90;;;1.58;;
33403;SDS011;19751;40.274;18.268;2023-04-28T13:26:38;1.40;;;0.90;;
33403;SDS011;19751;40.274;18.268;2023-04-28T13:29:04;5.28;;;1.25;;
33403;SDS011;19751;40.274;18.268;2023-04-28T13:31:32;2.42;;;0.93;;
33403;SDS011;19751;40.274;18.268;2023-04-28T13:33:58;2.38;;;1.02;;
33403;SDS011;19751;40.274;18.268;2023-04-28T13:36:26;1.77;;;1.00;;
33403;SDS011;19751;40.274;18.268;2023-04-28T13:38:54;3.63;;;1.23;;
33403;SDS011;19751;40.274;18.268;2023-04-28T13:41:20;3.50;;;1.17;;
33403;SDS011;19751;40.274;18.268;2023-04-28T13:43:46;1.20;;;0.90;;
33403;SDS011;19751;40.274;18.268;2023-04-28T13:46:12;1.95;;;0.70;;
33403;SDS011;19751;40.274;18.268;2023-04-28T13:48:38;0.90;;;0.80;;
33403;SDS011;19751;40.274;18.268;2023-04-28T13:51:04;2.22;;;0.73;;
33403;SDS011;19751;40.274;18.268;2023-04-28T13:53:31;1.27;;;0.80;;
33403;SDS011;19751;40.274;18.268;2023-04-28T13:55:57;3.40;;;1.13;;
33403;SDS011;19751;40.274;18.268;2023-04-28T13:58:26;1.98;;;1.08;;
33403;SDS011;19751;40.274;18.268;2023-04-28T14:00:52;3.38;;;2.42;;
33403;SDS011;19751;40.274;18.268;2023-04-28T14:03:19;3.85;;;1.90;;
33403;SDS011;19751;40.274;18.268;2023-04-28T14:05:51;1.52;;;1.13;;
33403;SDS011;19751;40.274;18.268;2023-04-28T14:08:18;1.33;;;0.70;;
33403;SDS011;19751;40.274;18.268;2023-04-28T14:10:44;1.95;;;1.08;;
33403;SDS011;19751;40.274;18.268;2023-04-28T14:13:10;2.05;;;0.93;;
33403;SDS011;19751;40.274;18.268;2023-04-28T14:15:36;2.22;;;1.02;;
33403;SDS011;19751;40.274;18.268;2023-04-28T14:18:02;3.38;;;2.05;;
33403;SDS011;19751;40.274;18.268;2023-04-28T14:20:27;2.95;;;1.58;;
33403;SDS011;19751;40.274;18.268;2023-04-28T14:22:53;1.88;;;0.90;;
33403;SDS011;19751;40.274;18.268;2023-04-28T14:25:19;2.28;;;1.23;;
33403;SDS011;19751;40.274;18.268;2023-04-28T14:27:45;5.60;;;2.22;;
33403;SDS011;19751;40.274;18.268;2023-04-28T14:30:12;8.18;;;1.73;;
33403;SDS011;19751;40.274;18.268;2023-04-28T14:32:38;4.60;;;1.73;;
33403;SDS011;19751;40.274;18.268;2023-04-28T14:35:04;4.82;;;1.73;;
33403;SDS011;19751;40.274;18.268;2023-04-28T14:37:30;2.20;;;1.30;;
33403;SDS011;19751;40.274;18.268;2023-04-28T14:39:56;4.60;;;1.70;;
33403;SDS011;19751;40.274;18.268;2023-04-28T14:42:26;2.13;;;1.35;;
33403;SDS011;19751;40.274;18.268;2023-04-28T14:44:53;2.97;;;1.63;;
33403;SDS011;19751;40.274;18.268;2023-04-28T14:47:19;2.22;;;1.20;;
33403;SDS011;19751;40.274;18.268;2023-04-28T14:49:45;1.88;;;0.90;;
33403;SDS011;19751;40.274;18.268;2023-04-28T14:52:12;1.27;;;0.88;;
33403;SDS011;19751;40.274;18.268;2023-04-28T14:54:38;1.67;;;1.00;;
33403;SDS011;19751;40.274;18.268;2023-04-28T14:57:03;1.95;;;0.98;;
33403;SDS011;19751;40.274;18.268;2023-04-28T14:59:29;1.33;;;0.70;;
33403;SDS011;19751;40.274;18.268;2023-04-28T15:01:54;1.83;;;0.65;;
33403;SDS011;19751;40.274;18.268;2023-04-28T15:04:20;0.80;;;0.57;;
33403;SDS011;19751;40.274;18.268;2023-04-28T15:06:52;2.05;;;0.68;;